Terminal Aerodrome Forecast
Issued by NWS Sterling, VA

Current Version | Previous Version | Graphics & Text | Print | Product List | Glossary On
Versions: 1 2 3 4 5 6 7 8 9 10 11 12 13 14 15 16 17 18
715
FTUS41 KLWX 210831 AAA
TAFIAD
TAF AMD
KIAD 210831Z 2109/2212 VRB03KT 6SM BR FEW007 BKN120
     FM211400 25006KT P6SM BKN090
     FM211800 28009KT P6SM -SHRA BKN060
     FM220000 31005KT P6SM SCT150
     FM220500 34005KT P6SM BKN080=

USA.gov is the U.S. government's official web portal to all federal, state and local government web resources and services.